Time;durP1;ratioP1;P1;durP2;ratioP2;P2;SDS_P1;SDS_P2;PMS_P1;PMS_P2;Temp;Humidity;BMP_temperature;BMP_pressure;BME280_temperature;BME280_humidity;BME280_pressure;Samples;Min_cycle;Max_cycle;Signal;HPM_P1;HPM_P2
2022/04/09 00:02:14;;;;;;;0.82;0.70;;;;;;;18.44;40.24;100257.94;5013511;28;20030;-71
2022/04/09 00:04:39;;;;;;;1.50;0.68;;;;;;;18.44;40.61;100260.69;5013218;28;20034;-72
2022/04/09 00:07:05;;;;;;;0.50;0.50;;;;;;;18.43;40.54;100265.38;5013296;28;20062;-72
2022/04/09 00:09:30;;;;;;;1.77;0.85;;;;;;;18.43;40.34;100268.09;5013611;28;20033;-72
2022/04/09 00:11:56;;;;;;;1.20;0.95;;;;;;;18.43;40.60;100273.59;5013371;28;20463;-71
2022/04/09 00:14:21;;;;;;;1.15;0.65;;;;;;;18.43;40.31;100275.53;5013457;28;20442;-72
2022/04/09 00:16:47;;;;;;;0.82;0.68;;;;;;;18.42;40.61;100282.94;5012988;28;20038;-72
2022/04/09 00:19:12;;;;;;;1.00;0.60;;;;;;;18.43;40.36;100283.78;4995934;28;20406;-72
2022/04/09 00:21:38;;;;;;;1.08;0.80;;;;;;;18.43;40.36;100294.75;5013221;28;20030;-71
2022/04/09 00:24:03;;;;;;;1.15;0.60;;;;;;;18.42;40.62;100299.41;4995663;28;20122;-72
2022/04/09 00:26:29;;;;;;;1.30;0.90;;;;;;;18.41;40.32;100304.09;5013023;28;20060;-72
2022/04/09 00:28:54;;;;;;;0.63;0.40;;;;;;;18.40;40.42;100307.94;5012566;28;20034;-72
2022/04/09 00:31:19;;;;;;;1.17;0.80;;;;;;;18.41;40.50;100312.34;5013076;28;20037;-73
2022/04/09 00:33:45;;;;;;;1.30;0.90;;;;;;;18.42;40.38;100310.41;5012827;28;20033;-73
2022/04/09 00:36:10;;;;;;;0.73;0.57;;;;;;;18.41;40.41;100315.09;5013008;28;20477;-73
2022/04/09 00:38:35;;;;;;;1.38;0.70;;;;;;;18.42;40.43;100318.63;5012969;28;20030;-73
2022/04/09 00:41:01;;;;;;;0.82;0.60;;;;;;;18.41;40.27;100319.75;5012925;28;20474;-73
2022/04/09 00:43:26;;;;;;;0.50;0.45;;;;;;;18.40;40.20;100320.84;5012783;28;20424;-74
2022/04/09 00:45:52;;;;;;;0.68;0.60;;;;;;;18.41;40.32;100320.56;5012703;28;20044;-74
2022/04/09 00:48:21;;;;;;;1.17;0.80;;;;;;;18.40;40.35;100335.41;4994915;28;20057;-73
2022/04/09 00:50:47;;;;;;;1.15;0.80;;;;;;;18.40;40.36;100337.34;5012792;28;20026;-74
2022/04/09 00:53:15;;;;;;;0.88;0.70;;;;;;;18.40;40.36;100340.91;5012736;28;20034;-73
2022/04/09 00:58:28;;;;;;;0.60;0.60;;;;;;;18.40;40.19;100348.31;5012328;28;20516;-73
2022/04/09 01:00:53;;;;;;;0.68;0.68;;;;;;;18.40;40.30;100356.56;5012656;28;20033;-73
2022/04/09 01:03:20;;;;;;;2.55;0.90;;;;;;;18.39;40.37;100363.16;4995116;28;20130;-73
2022/04/09 01:05:48;;;;;;;1.10;0.68;;;;;;;18.38;40.53;100362.34;5012742;28;20104;-73
2022/04/09 01:08:14;;;;;;;1.45;0.90;;;;;;;18.38;40.34;100369.72;4994889;28;20041;-73
2022/04/09 01:10:40;;;;;;;0.65;0.52;;;;;;;18.38;40.38;100372.47;5012454;28;20042;-73
2022/04/09 01:13:06;;;;;;;1.10;0.90;;;;;;;18.39;40.46;100382.38;5012432;28;20101;-73
2022/04/09 01:15:32;;;;;;;0.95;0.80;;;;;;;18.37;40.16;100377.16;5012396;28;20101;-74
2022/04/09 01:17:59;;;;;;;1.80;0.90;;;;;;;18.38;40.31;100381.56;5012393;28;20107;-73
2022/04/09 01:20:29;;;;;;;0.73;0.65;;;;;;;18.37;40.32;100390.06;4994832;28;20026;-74
2022/04/09 01:22:54;;;;;;;2.00;1.08;;;;;;;18.37;40.12;100401.06;4995359;28;20030;-73
2022/04/09 01:25:20;;;;;;;2.25;0.70;;;;;;;18.36;40.19;100402.97;4994877;28;20040;-73
2022/04/09 01:27:47;;;;;;;0.77;0.55;;;;;;;18.36;40.21;100405.72;5011489;28;20037;-73
2022/04/09 01:30:13;;;;;;;0.85;0.70;;;;;;;18.36;40.10;100410.41;5012304;28;20034;-73
2022/04/09 01:32:39;;;;;;;1.52;0.73;;;;;;;18.36;40.15;100419.44;5012141;28;20030;-73
2022/04/09 01:35:05;;;;;;;0.70;0.65;;;;;;;18.36;40.23;100413.13;5012132;28;20037;-74
2022/04/09 01:37:31;;;;;;;1.13;0.70;;;;;;;18.36;39.96;100421.38;5012077;28;20022;-74
2022/04/09 01:39:57;;;;;;;1.63;0.77;;;;;;;18.36;40.12;100426.88;5012117;28;20493;-73
2022/04/09 01:42:25;;;;;;;1.45;0.90;;;;;;;18.36;40.22;100424.13;5011983;28;20049;-73
2022/04/09 01:44:50;;;;;;;0.75;0.75;;;;;;;18.35;40.18;100431.56;5011916;28;20075;-73
2022/04/09 01:47:15;;;;;;;1.35;1.00;;;;;;;18.34;40.12;100435.38;5011885;28;20061;-72
2022/04/09 01:49:41;;;;;;;0.85;0.60;;;;;;;18.34;40.09;100437.31;5012050;28;20026;-73
2022/04/09 01:52:07;;;;;;;0.88;0.70;;;;;;;18.35;40.12;100445.28;5011809;28;20038;-72
2022/04/09 01:54:33;;;;;;;1.38;0.82;;;;;;;18.35;40.12;100449.94;5011805;28;20030;-73
2022/04/09 01:56:58;;;;;;;0.63;0.63;;;;;;;18.34;39.65;100457.38;5011160;28;20157;-72
2022/04/09 01:59:24;;;;;;;1.52;0.90;;;;;;;18.33;40.05;100461.19;4993833;28;20038;-73
2022/04/09 02:01:49;;;;;;;2.33;1.15;;;;;;;18.34;40.03;100456.53;4994254;28;20030;-74
2022/04/09 02:04:15;;;;;;;1.30;0.82;;;;;;;18.34;39.93;100464.78;5011526;28;20389;-74
2022/04/09 02:06:42;;;;;;;1.50;0.80;;;;;;;18.33;39.92;100460.38;5011576;28;20481;-74
2022/04/09 02:09:11;;;;;;;0.52;0.52;;;;;;;18.33;39.98;100465.88;5011642;28;20176;-74
2022/04/09 02:11:41;;;;;;;1.95;0.75;;;;;;;18.33;39.84;100474.94;4994090;28;20030;-74
2022/04/09 02:14:10;;;;;;;1.95;1.08;;;;;;;18.33;39.85;100476.88;5011482;28;20049;-74
2022/04/09 02:16:37;;;;;;;0.85;0.75;;;;;;;18.32;39.87;100486.19;5011551;28;20034;-74
2022/04/09 02:19:02;;;;;;;0.73;0.60;;;;;;;18.31;39.75;100488.13;5011209;28;20061;-74
2022/04/09 02:21:28;;;;;;;1.52;0.80;;;;;;;18.32;39.90;100488.94;4993895;28;20068;-74
2022/04/09 02:23:53;;;;;;;1.25;0.80;;;;;;;18.31;39.79;100490.88;5011225;28;20063;-73
2022/04/09 02:26:19;;;;;;;0.90;0.68;;;;;;;18.30;39.81;100500.19;5011471;28;20037;-74
2022/04/09 02:28:47;;;;;;;1.35;0.70;;;;;;;18.30;39.86;100511.19;5011206;28;20034;-74
2022/04/09 02:31:13;;;;;;;0.95;0.70;;;;;;;18.30;39.62;100502.94;5011697;28;20030;-73
2022/04/09 02:33:38;;;;;;;1.10;0.70;;;;;;;18.29;39.65;100498.56;5011222;28;20366;-73
2022/04/09 02:36:05;;;;;;;1.08;0.80;;;;;;;18.29;39.76;100505.97;5011041;28;20470;-73
2022/04/09 02:38:31;;;;;;;1.13;0.70;;;;;;;18.29;39.69;100509.56;5011139;28;20480;-73
2022/04/09 02:40:57;;;;;;;1.38;0.85;;;;;;;18.29;39.56;100511.47;5011900;28;20034;-74
2022/04/09 02:43:22;;;;;;;1.02;0.77;;;;;;;18.29;39.62;100519.69;5011520;28;20091;-73
2022/04/09 02:45:48;;;;;;;0.85;0.82;;;;;;;18.29;39.71;100526.03;5011073;28;20107;-73
2022/04/09 02:48:14;;;;;;;1.55;0.90;;;;;;;18.29;39.61;100522.44;5010896;28;20049;-72
2022/04/09 02:50:40;;;;;;;0.73;0.73;;;;;;;18.28;39.58;100529.88;5010996;28;20489;-73
2022/04/09 02:53:05;;;;;;;1.42;1.02;;;;;;;18.28;39.54;100527.13;5011216;28;20037;-73
2022/04/09 02:55:31;;;;;;;0.77;0.70;;;;;;;18.28;39.56;100537.25;5010988;28;20030;-74
2022/04/09 02:57:56;;;;;;;1.05;0.73;;;;;;;18.27;39.48;100541.13;5010491;28;20462;-73
2022/04/09 03:00:21;;;;;;;1.63;0.80;;;;;;;18.28;39.53;100551.00;5010921;28;20117;-72
2022/04/09 03:02:47;;;;;;;1.58;0.90;;;;;;;18.27;39.67;100550.19;5010919;28;20038;-73
2022/04/09 03:05:13;;;;;;;1.77;0.95;;;;;;;18.27;39.61;100558.41;5010825;28;20079;-73
2022/04/09 03:07:39;;;;;;;1.00;0.80;;;;;;;18.27;39.50;100560.34;5010762;28;20131;-73
2022/04/09 03:10:04;;;;;;;1.45;1.00;;;;;;;18.27;39.64;100563.91;5014194;28;20052;-73
2022/04/09 03:12:30;;;;;;;1.20;0.70;;;;;;;18.28;39.60;100567.47;5014251;28;20457;-73
2022/04/09 03:14:55;;;;;;;1.35;1.02;;;;;;;18.27;39.43;100561.16;5014413;28;20045;-73
2022/04/09 03:17:21;;;;;;;0.70;0.57;;;;;;;18.28;39.63;100573.81;5014257;28;20543;-74
2022/04/09 03:19:46;;;;;;;1.77;0.85;;;;;;;18.26;39.58;100570.50;5014109;28;20083;-73
2022/04/09 03:22:11;;;;;;;1.55;0.70;;;;;;;18.27;39.50;100565.84;4997113;28;20033;-73
2022/04/09 03:24:37;;;;;;;1.02;0.70;;;;;;;18.28;39.42;100572.97;5029181;28;20065;-73
2022/04/09 03:27:02;;;;;;;2.80;1.00;;;;;;;18.28;39.55;100578.47;4996480;28;20527;-74
2022/04/09 03:29:28;;;;;;;1.35;0.88;;;;;;;18.27;39.50;100580.38;5013574;28;20436;-73
2022/04/09 03:31:54;;;;;;;1.35;1.13;;;;;;;18.27;39.57;100596.06;5014039;28;20062;-73
2022/04/09 03:34:20;;;;;;;1.30;0.85;;;;;;;18.27;39.54;100587.81;5014353;28;20034;-73
2022/04/09 03:36:45;;;;;;;1.75;0.82;;;;;;;18.27;39.50;100593.31;4996206;28;20118;-72
2022/04/09 03:39:11;;;;;;;1.05;0.90;;;;;;;18.27;39.46;100598.78;5013912;28;20033;-73
2022/04/09 03:41:36;;;;;;;1.00;0.63;;;;;;;18.26;39.26;100600.69;4996099;28;20071;-73
2022/04/09 03:44:02;;;;;;;1.38;0.85;;;;;;;18.24;39.35;100598.22;5013525;28;20063;-73
2022/04/09 03:46:27;;;;;;;1.38;0.88;;;;;;;18.24;39.39;100600.97;5013727;28;20454;-73
2022/04/09 03:48:53;;;;;;;1.08;0.68;;;;;;;18.24;39.65;100602.91;5013576;28;20184;-73
2022/04/09 03:51:18;;;;;;;1.48;0.73;;;;;;;18.24;39.45;100609.22;5013697;28;20034;-72
2022/04/09 03:53:44;;;;;;;0.77;0.52;;;;;;;18.25;39.35;100604.56;5013805;28;20049;-73
2022/04/09 03:56:09;;;;;;;1.02;0.68;;;;;;;18.24;39.36;100613.88;5013772;28;20040;-74
2022/04/09 03:58:38;;;;;;;1.23;0.75;;;;;;;18.24;39.57;100605.66;5013105;28;20034;-74
2022/04/09 04:01:04;;;;;;;1.13;0.63;;;;;;;18.23;39.42;100607.59;5014005;28;20030;-73
2022/04/09 04:03:29;;;;;;;1.30;0.70;;;;;;;18.24;39.55;100622.13;5013278;28;20037;-73
2022/04/09 04:05:55;;;;;;;1.33;0.85;;;;;;;18.23;39.37;100625.97;5013431;28;20030;-72
2022/04/09 04:08:21;;;;;;;0.77;0.40;;;;;;;18.23;39.15;100628.72;5013125;28;20026;-73
2022/04/09 04:10:46;;;;;;;0.70;0.70;;;;;;;18.22;39.45;100633.38;5013471;28;20038;-73
2022/04/09 04:13:12;;;;;;;1.27;0.75;;;;;;;18.22;39.31;100638.06;5013325;28;20038;-73
2022/04/09 04:15:37;;;;;;;1.02;0.70;;;;;;;18.21;39.30;100634.47;5013330;28;20122;-73
2022/04/09 04:18:03;;;;;;;0.65;0.65;;;;;;;18.21;39.47;100645.44;5013551;28;20489;-73
2022/04/09 04:20:29;;;;;;;1.30;0.70;;;;;;;18.21;39.30;100644.63;5012840;28;20034;-72
2022/04/09 04:22:55;;;;;;;0.90;0.65;;;;;;;18.20;39.27;100657.56;5013442;28;20030;-73
2022/04/09 04:25:21;;;;;;;1.05;0.70;;;;;;;18.20;39.11;100656.72;5013168;28;20030;-72
2022/04/09 04:27:49;;;;;;;1.08;0.75;;;;;;;18.20;39.21;100662.19;5012859;28;20042;-73
2022/04/09 04:30:15;;;;;;;1.08;0.80;;;;;;;18.20;38.86;100665.78;5028403;28;20122;-74
2022/04/09 04:32:42;;;;;;;1.30;1.00;;;;;;;18.20;39.14;100665.78;5013349;28;20095;-73
2022/04/09 04:35:08;;;;;;;1.38;0.75;;;;;;;18.20;39.12;100667.69;5013078;28;20113;-73
2022/04/09 04:37:42;;;;;;;1.23;1.00;;;;;;;18.19;39.47;100672.38;5013038;28;20095;-73
2022/04/09 04:40:08;;;;;;;0.85;0.55;;;;;;;18.19;39.17;100664.13;5013000;28;20517;-73
2022/04/09 04:42:34;;;;;;;1.63;0.80;;;;;;;18.19;39.28;100668.81;5012922;28;20125;-74
2022/04/09 04:44:59;;;;;;;0.90;0.70;;;;;;;18.20;39.20;100675.94;5013203;28;20121;-73
2022/04/09 04:47:25;;;;;;;0.82;0.63;;;;;;;18.19;39.08;100680.59;5012410;28;20058;-73
2022/04/09 04:49:50;;;;;;;1.27;0.80;;;;;;;18.18;39.33;100687.19;5012835;28;20458;-73
2022/04/09 04:52:16;;;;;;;1.38;0.90;;;;;;;18.18;39.19;100689.13;5012661;28;20060;-73
2022/04/09 04:54:41;;;;;;;1.77;0.90;;;;;;;18.18;39.37;100689.13;5012764;28;20061;-73
2022/04/09 04:57:07;;;;;;;2.22;1.05;;;;;;;18.18;39.26;100700.09;5012458;28;20397;-74
2022/04/09 04:59:32;;;;;;;2.83;1.10;;;;;;;18.18;39.14;100700.09;5012199;28;20112;-74
2022/04/09 05:01:57;;;;;;;1.42;0.88;;;;;;;18.17;39.01;100702.03;5012425;28;20112;-74
2022/04/09 05:04:25;;;;;;;1.27;0.80;;;;;;;18.18;39.18;100705.59;5012661;28;20180;-73
2022/04/09 05:06:51;;;;;;;1.15;0.77;;;;;;;18.17;39.12;100710.28;5012424;28;20083;-74
2022/04/09 05:09:17;;;;;;;1.98;0.63;;;;;;;18.17;39.06;100713.00;5012451;28;20079;-72
2022/04/09 05:11:42;;;;;;;1.83;0.70;;;;;;;18.17;39.24;100725.91;4994963;28;20431;-73
2022/04/09 05:14:08;;;;;;;0.90;0.65;;;;;;;18.17;39.12;100724.00;4994766;28;20045;-73
2022/04/09 05:16:33;;;;;;;1.58;0.70;;;;;;;18.17;38.98;100731.38;5012415;28;20034;-73
2022/04/09 05:18:59;;;;;;;2.17;1.02;;;;;;;18.18;39.15;100733.88;5012392;28;20557;-74
2022/04/09 05:21:25;;;;;;;1.23;0.90;;;;;;;18.18;39.02;100741.28;5012369;28;20030;-73
2022/04/09 05:23:50;;;;;;;1.65;0.88;;;;;;;18.18;39.15;100744.03;4994943;28;20045;-73
2022/04/09 05:26:15;;;;;;;1.38;0.93;;;;;;;18.19;39.21;100746.50;4995104;28;20401;-68
2022/04/09 05:28:41;;;;;;;1.25;0.90;;;;;;;18.13;37.01;100753.06;5011972;28;20155;-67
2022/04/09 05:31:08;;;;;;;2.50;1.10;;;;;;;17.98;35.80;100761.22;5011255;28;20038;-67
2022/04/09 05:33:34;;;;;;;2.60;1.08;;;;;;;17.73;35.73;100760.00;5012218;28;20041;-67
2022/04/09 05:36:02;;;;;;;3.00;1.30;;;;;;;17.54;35.96;100765.09;5012565;28;20397;-64
2022/04/09 05:38:27;;;;;;;3.00;1.17;;;;;;;17.47;36.01;100768.03;5012063;28;20029;-66
2022/04/09 05:40:52;;;;;;;2.25;1.25;;;;;;;17.44;36.39;100776.81;5012037;28;20030;-64
2022/04/09 05:43:18;;;;;;;2.33;1.20;;;;;;;17.47;36.95;100779.00;5012182;28;20034;-66
2022/04/09 05:45:43;;;;;;;2.65;1.08;;;;;;;17.53;37.65;100788.09;5011976;28;20497;-66
2022/04/09 05:48:09;;;;;;;3.00;1.20;;;;;;;17.61;37.36;100792.28;5012022;28;20050;-65
2022/04/09 05:50:34;;;;;;;3.08;1.10;;;;;;;17.68;37.65;100795.63;5011841;28;20042;-66
2022/04/09 05:53:00;;;;;;;1.80;1.40;;;;;;;17.76;37.87;100799.78;5011595;28;20044;-65
2022/04/09 05:55:25;;;;;;;2.75;1.27;;;;;;;17.81;37.75;100797.06;5011818;28;20505;-65
2022/04/09 05:57:50;;;;;;;2.97;1.20;;;;;;;17.87;37.72;100804.25;4993491;28;20038;-65
2022/04/09 06:00:16;;;;;;;2.22;1.13;;;;;;;17.92;37.90;100803.47;4994309;28;20057;-65
2022/04/09 06:02:43;;;;;;;1.65;1.00;;;;;;;17.96;37.85;100810.91;5011700;28;20034;-64
2022/04/09 06:05:09;;;;;;;1.60;1.05;;;;;;;17.99;37.97;100815.88;5011746;28;20091;-66
2022/04/09 06:07:34;;;;;;;1.92;1.30;;;;;;;18.02;37.93;100811.75;5012174;28;20042;-66
2022/04/09 06:10:00;;;;;;;2.50;1.25;;;;;;;18.04;37.85;100817.81;5011661;28;20065;-66
2022/04/09 06:12:26;;;;;;;1.83;1.13;;;;;;;18.06;37.91;100823.88;5011547;28;20033;-66
2022/04/09 06:14:51;;;;;;;2.65;1.40;;;;;;;18.09;37.97;100828.81;5011855;28;20041;-66
2022/04/09 06:17:16;;;;;;;1.52;1.00;;;;;;;18.13;38.09;100831.84;4994222;28;20044;-66
2022/04/09 06:19:43;;;;;;;2.38;1.05;;;;;;;18.15;38.13;100835.19;4978599;28;20054;-66
2022/04/09 06:22:09;;;;;;;2.35;1.13;;;;;;;18.17;38.12;100838.47;4993922;28;20080;-66
2022/04/09 06:24:34;;;;;;;3.38;1.02;;;;;;;18.19;37.93;100847.28;4994108;28;20037;-65
2022/04/09 06:26:59;;;;;;;2.03;1.10;;;;;;;18.21;37.99;100845.09;5011344;28;20505;-66
2022/04/09 06:29:25;;;;;;;2.75;1.08;;;;;;;18.23;38.18;100849.22;5010952;28;20029;-66
2022/04/09 06:31:50;;;;;;;1.15;0.75;;;;;;;18.26;38.04;100856.09;5011545;28;20454;-66
2022/04/09 06:34:17;;;;;;;1.35;0.80;;;;;;;18.26;38.03;100867.06;5011039;28;20030;-65
2022/04/09 06:36:43;;;;;;;2.95;1.02;;;;;;;18.29;38.02;100866.56;5011330;28;20120;-65
2022/04/09 06:39:08;;;;;;;2.13;1.00;;;;;;;18.29;38.13;100863.81;5010970;28;20488;-65
2022/04/09 06:41:35;;;;;;;2.05;0.85;;;;;;;18.29;38.27;100871.22;4993823;28;20030;-65
2022/04/09 06:44:00;;;;;;;1.63;0.90;;;;;;;18.32;38.51;100870.69;4993604;28;20110;-66
2022/04/09 06:46:26;;;;;;;1.65;1.08;;;;;;;18.33;38.52;100875.91;5010976;28;20466;-66
2022/04/09 06:48:52;;;;;;;1.27;1.02;;;;;;;18.33;38.61;100875.91;5011149;28;20053;-67
2022/04/09 06:51:17;;;;;;;1.25;0.80;;;;;;;18.34;38.40;100869.31;5011032;28;20446;-65
2022/04/09 06:53:43;;;;;;;1.45;1.00;;;;;;;18.36;38.22;100888.28;5010763;28;20112;-66
2022/04/09 06:56:08;;;;;;;0.85;0.75;;;;;;;18.36;38.45;100875.38;5011017;28;20113;-65
2022/04/09 06:58:34;;;;;;;1.75;1.20;;;;;;;18.36;38.75;100880.03;5010332;28;20041;-65
2022/04/09 07:01:01;;;;;;;1.67;1.10;;;;;;;18.36;38.79;100882.78;5011014;28;20045;-65
2022/04/09 07:03:27;;;;;;;2.25;1.33;;;;;;;18.35;38.98;100883.88;5010966;28;20034;-65
2022/04/09 07:05:53;;;;;;;1.42;0.90;;;;;;;18.38;38.89;100891.56;5010819;28;20064;-67
2022/04/09 07:08:20;;;;;;;1.48;1.13;;;;;;;18.38;38.82;100899.81;5010623;28;20077;-66
2022/04/09 07:10:45;;;;;;;1.65;1.10;;;;;;;18.37;39.01;100895.44;5010429;28;20030;-67
2022/04/09 07:13:10;;;;;;;1.67;1.10;;;;;;;18.36;39.18;100911.06;4993171;28;20057;-67
2022/04/09 07:15:36;;;;;;;2.67;1.02;;;;;;;18.34;38.85;100907.78;5010823;28;20030;-67
2022/04/09 07:18:01;;;;;;;1.85;1.05;;;;;;;18.34;39.00;100909.69;5010449;28;20036;-67
2022/04/09 07:20:29;;;;;;;3.60;1.05;;;;;;;18.33;38.96;100913.53;5010762;28;20034;-67
2022/04/09 07:22:54;;;;;;;1.77;1.02;;;;;;;18.32;38.96;100918.22;5010642;28;20030;-67
2022/04/09 07:25:20;;;;;;;3.00;1.10;;;;;;;18.32;38.93;100920.13;4993143;28;20042;-67
2022/04/09 07:27:47;;;;;;;1.52;0.85;;;;;;;18.32;39.01;100920.13;4992556;28;20058;-66
2022/04/09 07:30:21;;;;;;;1.65;0.98;;;;;;;18.32;38.91;100922.84;4993149;28;20026;-67
2022/04/09 07:32:49;;;;;;;1.77;0.82;;;;;;;18.31;38.93;100926.72;5010831;28;20488;-67
2022/04/09 07:35:15;;;;;;;1.67;0.88;;;;;;;18.32;39.18;100933.84;5010818;28;20053;-66
2022/04/09 07:37:42;;;;;;;1.27;0.80;;;;;;;18.34;38.86;100934.44;5009858;28;20124;-66
2022/04/09 07:40:09;;;;;;;1.35;1.17;;;;;;;18.35;39.06;100930.56;5010413;28;20111;-67
2022/04/09 07:42:42;;;;;;;1.33;1.00;;;;;;;18.36;39.03;100933.03;4992932;28;20483;-67
2022/04/09 07:45:08;;;;;;;1.95;1.10;;;;;;;18.36;38.99;100941.28;5010533;28;20493;-68
2022/04/09 07:47:34;;;;;;;2.63;0.90;;;;;;;18.35;38.67;100945.16;4992582;28;20041;-67
2022/04/09 07:50:03;;;;;;;1.80;1.13;;;;;;;18.34;38.82;100946.22;5010460;28;20427;-70
2022/04/09 07:52:28;;;;;;;2.17;0.95;;;;;;;18.33;38.81;100941.00;5010609;28;20098;-69
2022/04/09 07:54:57;;;;;;;1.98;1.02;;;;;;;18.32;39.01;100934.69;5011910;28;20445;-70
2022/04/09 07:57:26;;;;;;;2.00;1.13;;;;;;;18.34;38.98;100942.66;5013698;28;20034;-69
2022/04/09 07:59:53;;;;;;;1.95;0.82;;;;;;;18.36;38.88;100945.97;5013172;28;20026;-70
2022/04/09 08:02:19;;;;;;;1.40;0.98;;;;;;;18.37;38.78;100953.94;5013686;28;20029;-70
2022/04/09 08:04:45;;;;;;;1.85;1.20;;;;;;;18.40;38.82;100944.34;5013594;28;20049;-68
2022/04/09 08:07:10;;;;;;;1.73;1.17;;;;;;;18.41;38.62;100946.00;5013521;28;20365;-68
2022/04/09 08:09:36;;;;;;;1.58;0.98;;;;;;;18.40;38.95;100953.41;5013542;28;20038;-68
2022/04/09 08:12:01;;;;;;;1.98;1.20;;;;;;;18.40;38.97;100960.81;5014112;28;20041;-68
2022/04/09 08:14:26;;;;;;;1.63;1.08;;;;;;;18.40;38.81;100953.41;5013516;28;20112;-68
2022/04/09 08:16:52;;;;;;;2.47;0.90;;;;;;;18.40;38.79;100958.91;5013478;28;20084;-68
2022/04/09 08:19:18;;;;;;;1.77;0.85;;;;;;;18.40;38.84;100956.16;5013520;28;20456;-69
2022/04/09 08:21:44;;;;;;;1.23;0.93;;;;;;;18.41;38.80;100960.56;4995748;28;20029;-69
2022/04/09 08:24:10;;;;;;;1.98;1.05;;;;;;;18.41;39.03;100957.81;4995899;28;20037;-68
2022/04/09 08:26:36;;;;;;;1.70;0.90;;;;;;;18.42;39.06;100958.63;4995320;28;20461;-68
2022/04/09 08:29:03;;;;;;;1.33;0.95;;;;;;;18.42;39.05;100961.38;5027806;28;20056;-69
2022/04/09 08:31:28;;;;;;;1.88;1.02;;;;;;;18.43;38.96;100964.97;5013129;28;20466;-68
2022/04/09 08:33:54;;;;;;;1.75;0.77;;;;;;;18.43;38.87;100967.72;5012872;28;20041;-69
2022/04/09 08:36:20;;;;;;;2.05;1.13;;;;;;;18.43;38.89;100967.72;5013059;28;20041;-68
2022/04/09 08:38:45;;;;;;;1.13;0.85;;;;;;;18.44;38.62;100955.63;5013151;28;20446;-69
2022/04/09 08:41:16;;;;;;;1.83;1.10;;;;;;;18.44;38.82;100972.09;5013033;28;20030;-68
2022/04/09 08:43:42;;;;;;;1.80;0.82;;;;;;;18.43;38.43;100974.03;5028264;28;20037;-68
2022/04/09 08:46:08;;;;;;;1.30;0.80;;;;;;;18.43;38.66;100987.75;4995874;28;20033;-69
2022/04/09 08:48:34;;;;;;;1.95;0.85;;;;;;;18.44;38.58;100986.69;4995536;28;20077;-68
2022/04/09 08:51:00;;;;;;;2.25;0.98;;;;;;;18.45;38.69;100995.75;5012619;28;20546;-68
2022/04/09 08:53:25;;;;;;;2.05;1.10;;;;;;;18.46;38.47;100991.91;5012906;28;20065;-68
2022/04/09 08:55:51;;;;;;;1.25;0.73;;;;;;;18.47;38.78;100997.13;5012775;28;20365;-68
2022/04/09 08:58:17;;;;;;;1.75;1.05;;;;;;;18.47;38.67;100997.13;4995152;28;20112;-68
2022/04/09 09:00:45;;;;;;;1.90;1.00;;;;;;;18.47;38.21;101010.03;5012765;28;20042;-68
2022/04/09 09:03:14;;;;;;;2.08;0.90;;;;;;;18.46;38.44;101014.69;4995802;28;20053;-68
2022/04/09 09:05:42;;;;;;;1.17;0.70;;;;;;;18.46;38.54;101008.38;5012731;28;20075;-69
2022/04/09 09:08:09;;;;;;;1.50;0.80;;;;;;;18.46;38.61;101019.38;5013028;28;20503;-69
2022/04/09 09:10:36;;;;;;;2.22;0.82;;;;;;;18.46;38.28;101027.63;5012284;28;20377;-70
2022/04/09 09:13:10;;;;;;;1.48;0.80;;;;;;;18.49;38.67;101027.91;5012606;28;20029;-68
2022/04/09 09:15:52;;;;;;;0.90;0.80;;;;;;;18.57;38.72;101019.19;5012500;28;20026;-75
2022/04/09 09:18:25;;;;;;;2.08;1.08;;;;;;;18.63;37.83;101019.19;4994977;28;20018;-69
2022/04/09 09:20:52;;;;;;;1.33;0.82;;;;;;;18.62;37.70;101023.88;5012883;28;20026;-68
2022/04/09 09:23:23;;;;;;;1.17;0.93;;;;;;;18.61;37.85;101022.22;5018039;28;20049;-69
2022/04/09 09:25:52;;;;;;;1.58;0.80;;;;;;;18.61;37.38;101022.22;5031375;28;20017;-72
2022/04/09 09:28:25;;;;;;;1.25;1.00;;;;;;;18.62;37.47;101034.06;5026080;28;20030;-72
2022/04/09 09:30:51;;;;;;;2.47;0.80;;;;;;;18.63;37.50;101057.66;5031452;28;20026;-72
2022/04/09 09:33:16;;;;;;;1.10;0.80;;;;;;;18.63;37.01;101041.19;5031188;28;20373;-72
2022/04/09 09:35:51;;;;;;;1.88;1.08;;;;;;;18.64;37.33;101049.16;5031511;28;20029;-73
2022/04/09 09:38:19;;;;;;;1.33;0.75;;;;;;;18.63;37.19;101050.28;5028867;28;20510;-71
2022/04/09 09:40:44;;;;;;;0.80;0.68;;;;;;;18.62;37.57;101045.84;5011131;28;20037;-72
2022/04/09 09:43:17;;;;;;;1.52;0.95;;;;;;;18.61;37.84;101046.94;4993854;28;20477;-72
2022/04/09 09:45:43;;;;;;;1.85;1.10;;;;;;;18.63;37.84;101049.44;5011405;28;20036;-73
2022/04/09 09:48:29;;;;;;;1.83;0.82;;;;;;;18.65;38.14;101041.75;5011071;28;20474;-72
2022/04/09 09:50:58;;;;;;;1.92;1.00;;;;;;;18.64;38.09;101040.09;5010791;28;20125;-72
2022/04/09 09:53:31;;;;;;;1.20;0.77;;;;;;;18.64;38.05;101049.16;5011284;28;20038;-71
2022/04/09 09:55:56;;;;;;;1.13;0.70;;;;;;;18.66;38.17;101038.75;5009888;28;20083;-78
2022/04/09 09:58:23;;;;;;;1.00;0.47;;;;;;;18.72;37.97;101043.19;4993875;28;20034;-74
2022/04/09 10:00:49;;;;;;;0.95;0.73;;;;;;;18.73;38.01;101039.34;5011815;28;20030;-75
2022/04/09 10:03:16;;;;;;;4.32;1.13;;;;;;;18.73;38.01;101053.09;5011681;28;20030;-71
2022/04/09 10:05:42;;;;;;;1.15;0.80;;;;;;;18.73;38.70;101057.75;5011683;28;20121;-69
2022/04/09 10:08:09;;;;;;;1.20;1.08;;;;;;;18.72;38.55;101050.56;5011857;28;20043;-70
2022/04/09 10:10:36;;;;;;;1.75;0.90;;;;;;;18.71;38.32;101049.75;4994592;28;20030;-70
2022/04/09 10:13:04;;;;;;;1.38;0.80;;;;;;;18.72;38.70;101051.44;5011934;28;20103;-70
2022/04/09 10:15:30;;;;;;;1.67;0.98;;;;;;;18.72;38.42;101050.56;5011640;28;20064;-74
2022/04/09 10:17:58;;;;;;;2.10;0.90;;;;;;;18.72;38.25;101040.44;5011191;28;20129;-73
2022/04/09 10:20:28;;;;;;;0.70;0.52;;;;;;;18.75;38.39;101059.13;5011474;28;20175;-74
2022/04/09 10:23:03;;;;;;;1.55;0.95;;;;;;;18.79;38.52;101051.19;5011443;28;20077;-74
2022/04/09 10:25:32;;;;;;;0.73;0.50;;;;;;;18.80;37.95;101066.59;5011498;28;20167;-73
2022/04/09 10:28:03;;;;;;;1.17;0.60;;;;;;;18.81;38.39;101062.75;5010891;28;20033;-73
2022/04/09 10:30:39;;;;;;;0.80;0.80;;;;;;;18.83;38.04;101059.72;5011429;28;20030;-73
2022/04/09 10:33:22;;;;;;;1.52;0.60;;;;;;;18.84;38.35;101053.13;5011357;28;20040;-73
2022/04/09 10:35:48;;;;;;;1.00;0.60;;;;;;;18.83;38.17;101056.97;4994835;28;20033;-73
2022/04/09 10:38:22;;;;;;;0.75;0.50;;;;;;;18.84;38.11;101064.97;5010907;28;20034;-73
2022/04/09 10:40:52;;;;;;;2.35;0.60;;;;;;;18.82;37.82;101061.63;5011083;28;20034;-73
2022/04/09 10:43:21;;;;;;;0.90;0.60;;;;;;;18.82;37.77;101077.31;4994002;28;20390;-74
2022/04/09 10:46:20;;;;;;;1.30;0.50;;;;;;;18.83;37.94;101081.72;4993681;28;20466;-73
2022/04/09 10:48:47;;;;;;;1.00;0.63;;;;;;;18.80;37.52;101079.50;4993596;28;20045;-73
2022/04/09 10:51:14;;;;;;;1.17;0.60;;;;;;;18.79;37.57;101075.09;5010982;28;20030;-74
2022/04/09 10:53:49;;;;;;;0.50;0.50;;;;;;;18.79;37.77;101077.84;4993488;28;20030;-73
2022/04/09 10:56:25;;;;;;;0.70;0.50;;;;;;;18.79;37.71;101084.16;5011030;28;20129;-74
2022/04/09 10:59:02;;;;;;;0.50;0.50;;;;;;;18.79;37.50;101067.66;5010566;28;20427;-73
2022/04/09 11:01:49;;;;;;;0.75;0.60;;;;;;;18.81;37.92;101072.91;5010799;28;20037;-73
2022/04/09 11:04:31;;;;;;;0.80;0.55;;;;;;;18.80;37.35;101063.84;5010923;28;20078;-74
2022/04/09 11:07:19;;;;;;;1.05;0.63;;;;;;;18.81;37.44;101068.25;5010804;28;20034;-74
2022/04/09 11:09:53;;;;;;;0.73;0.40;;;;;;;18.80;37.14;101069.34;5010782;28;20030;-73
2022/04/09 11:12:24;;;;;;;1.20;0.65;;;;;;;18.81;36.90;101071.00;5011138;28;20030;-73
2022/04/09 11:14:55;;;;;;;0.68;0.60;;;;;;;18.81;36.69;101073.75;4993153;28;20030;-73
2022/04/09 11:17:24;;;;;;;0.65;0.50;;;;;;;18.82;36.91;101063.56;5010776;28;20063;-73
2022/04/09 11:19:50;;;;;;;1.15;0.77;;;;;;;18.82;35.91;101069.88;5010632;28;20074;-77
2022/04/09 11:22:15;;;;;;;0.60;0.60;;;;;;;18.82;35.83;101077.31;5010626;28;20443;-74
2022/04/09 11:24:41;;;;;;;0.90;0.60;;;;;;;18.82;36.02;101077.31;5010607;28;20033;-74
2022/04/09 11:27:07;;;;;;;0.50;0.50;;;;;;;18.82;36.69;101093.81;4992996;28;20037;-74